CPH weather

Copenhagen Kastrup Airport
Copenhagen, Capital Region, Denmark

Public forecast

Using degrees Celsius for public forecast. Weather courtesy of forecast.io.

METAR (pilot weather report)

Retrieved 2018/02/18 23:20 UTC (26 minutes ago):

EKCH 182320Z 22007KT CAVOK 01/M00 Q1023 NOSIG

TAF (pilot weather forecast)

Retrieved 2018/02/18 18:00 UTC (6 hours ago):

TAF EKCH 181707Z 1818/1918 22008KT 9999 FEW030 BECMG 1910/1912 BKN010 TEMPO 1912/1918 BKN015